Time;durP1;ratioP1;P1;durP2;ratioP2;P2;SDS_P1;SDS_P2;PMS_P1;PMS_P2;Temp;Humidity;BMP_temperature;BMP_pressure;BME280_temperature;BME280_humidity;BME280_pressure;Samples;Min_cycle;Max_cycle;Signal;HPM_P1;HPM_P2
2022/09/02 00:01:23;;;;;;;2.10;1.90;;;;;;;;;;6303389;28;21240;-83
2022/09/02 00:04:26;;;;;;;2.38;2.17;;;;;;;;;;6301490;28;20402;-82
2022/09/02 00:07:28;;;;;;;3.53;1.90;;;;;;;;;;6304969;28;20036;-85
2022/09/02 00:10:30;;;;;;;3.13;1.98;;;;;;;;;;6294647;28;20045;-83
2022/09/02 00:13:34;;;;;;;2.63;1.88;;;;;;;;;;6297973;28;20044;-83
2022/09/02 00:16:36;;;;;;;2.20;2.00;;;;;;;;;;6293626;28;20105;-80
2022/09/02 00:19:38;;;;;;;2.17;1.63;;;;;;;;;;6288149;28;20545;-83
2022/09/02 00:22:40;;;;;;;2.97;2.25;;;;;;;;;;6286042;28;20065;-81
2022/09/02 00:25:45;;;;;;;2.45;2.25;;;;;;;;;;6292403;28;20041;-80
2022/09/02 00:28:47;;;;;;;3.97;2.22;;;;;;;;;;6293510;28;20751;-84
2022/09/02 00:31:57;;;;;;;2.20;2.00;;;;;;;;;;6286895;28;20055;-81
2022/09/02 00:35:00;;;;;;;3.88;2.38;;;;;;;;;;6280030;28;20052;-81
2022/09/02 00:38:03;;;;;;;4.15;2.45;;;;;;;;;;6286346;28;20104;-86
2022/09/02 00:41:07;;;;;;;5.60;2.53;;;;;;;;;;6279540;28;20041;-82
2022/09/02 00:44:13;;;;;;;2.78;2.47;;;;;;;;;;6275137;28;20048;-81
2022/09/02 00:47:15;;;;;;;5.15;2.33;;;;;;;;;;6288495;28;20094;-82
2022/09/02 00:50:21;;;;;;;5.18;2.65;;;;;;;;;;6292557;28;20249;-82
2022/09/02 00:53:25;;;;;;;2.85;2.45;;;;;;;;;;6291372;28;20044;-82
2022/09/02 00:56:29;;;;;;;3.50;2.70;;;;;;;;;;6289647;28;20276;-81
2022/09/02 00:59:53;;;;;;;3.17;2.00;;;;;;;;;;6293924;28;20043;-82
2022/09/02 01:02:56;;;;;;;;;;;;;;;;;;6291163;28;20041;-81
2022/09/02 01:05:59;;;;;;;9.50;2.80;;;;;;;;;;6281944;28;19952;-81
2022/09/02 01:09:07;;;;;;;3.22;2.33;;;;;;;;;;6286654;28;20187;-83
2022/09/02 01:12:11;;;;;;;3.70;2.33;;;;;;;;;;6297908;28;20037;-81
2022/09/02 01:15:14;;;;;;;3.35;2.60;;;;;;;;;;6299073;28;20048;-83
2022/09/02 01:18:18;;;;;;;;;;;;;;;;;;6274977;28;20045;-82
2022/09/02 01:21:20;;;;;;;2.72;2.53;;;;;;;;;;6305922;28;19927;-80
2022/09/02 01:24:26;;;;;;;4.80;2.80;;;;;;;;;;6301045;28;20052;-80
2022/09/02 01:27:28;;;;;;;3.08;2.55;;;;;;;;;;6300069;28;20040;-82
2022/09/02 01:30:31;;;;;;;3.25;2.47;;;;;;;;;;6299816;28;20122;-82
2022/09/02 01:33:33;;;;;;;3.15;2.85;;;;;;;;;;6304531;28;20040;-84
2022/09/02 01:36:41;;;;;;;3.00;2.67;;;;;;;;;;6297750;28;20094;-83
2022/09/02 01:39:44;;;;;;;3.40;2.80;;;;;;;;;;6298649;28;20060;-82
2022/09/02 01:42:46;;;;;;;3.50;2.55;;;;;;;;;;6296842;28;20112;-82
2022/09/02 01:45:53;;;;;;;3.03;2.70;;;;;;;;;;6277342;28;20048;-85
2022/09/02 01:48:56;;;;;;;3.35;2.58;;;;;;;;;;6288149;28;20048;-82
2022/09/02 01:52:01;;;;;;;4.05;2.75;;;;;;;;;;6305524;28;20036;-82
2022/09/02 01:55:04;;;;;;;2.67;2.30;;;;;;;;;;6311909;28;20032;-83
2022/09/02 01:58:05;;;;;;;4.43;2.58;;;;;;;;;;6300280;28;20471;-82
2022/09/02 02:01:07;;;;;;;3.40;2.50;;;;;;;;;;6298103;28;20045;-80
2022/09/02 02:04:10;;;;;;;4.07;2.53;;;;;;;;;;6305877;28;20047;-81
2022/09/02 02:07:18;;;;;;;2.83;2.53;;;;;;;;;;6289686;28;20264;-81
2022/09/02 02:10:20;;;;;;;2.83;2.53;;;;;;;;;;6289471;28;20044;-79
2022/09/02 02:13:23;;;;;;;3.13;2.80;;;;;;;;;;6299748;28;20135;-81
2022/09/02 02:16:26;;;;;;;;;;;;;;;;;;6289208;28;20048;-80
2022/09/02 02:19:28;;;;;;;3.80;3.00;;;;;;;;;;6266123;28;20042;-83
2022/09/02 02:22:32;;;;;;;3.10;2.53;;;;;;;;;;6291161;28;20044;-83
2022/09/02 02:25:34;;;;;;;2.80;2.50;;;;;;;;;;6293291;28;20044;-84
2022/09/02 02:28:37;;;;;;;2.75;2.50;;;;;;;;;;6291845;28;20040;-82
2022/09/02 02:31:39;;;;;;;4.03;2.83;;;;;;;;;;6289021;28;20072;-82
2022/09/02 02:34:42;;;;;;;3.70;2.72;;;;;;;;;;6295984;28;20115;-81
2022/09/02 02:37:47;;;;;;;2.83;2.55;;;;;;;;;;6290700;28;20056;-81
2022/09/02 02:40:54;;;;;;;3.45;2.70;;;;;;;;;;6287684;28;20040;-84
2022/09/02 02:43:55;;;;;;;4.43;2.88;;;;;;;;;;6300176;28;20044;-83
2022/09/02 02:46:57;;;;;;;5.57;2.67;;;;;;;;;;6295169;28;20045;-83
2022/09/02 02:50:00;;;;;;;3.72;3.00;;;;;;;;;;6296641;28;20047;-80
2022/09/02 02:53:03;;;;;;;5.13;3.00;;;;;;;;;;6294087;28;20048;-81
2022/09/02 02:56:06;;;;;;;2.92;2.63;;;;;;;;;;6296299;28;20089;-83
2022/09/02 02:59:08;;;;;;;4.15;2.92;;;;;;;;;;6294466;28;20051;-81
2022/09/02 03:02:11;;;;;;;3.13;2.80;;;;;;;;;;6287138;28;20516;-81
2022/09/02 03:05:14;;;;;;;3.15;2.90;;;;;;;;;;6302988;28;20044;-84
2022/09/02 03:08:20;;;;;;;3.40;3.00;;;;;;;;;;6296720;28;20036;-81
2022/09/02 03:11:26;;;;;;;3.58;3.00;;;;;;;;;;6297831;28;20050;-81
2022/09/02 03:14:29;;;;;;;4.55;2.88;;;;;;;;;;6296948;28;20159;-83
2022/09/02 03:17:31;;;;;;;3.35;3.05;;;;;;;;;;6280174;28;20040;-83
2022/09/02 03:20:34;;;;;;;4.88;3.17;;;;;;;;;;6287211;28;20407;-80
2022/09/02 03:23:39;;;;;;;4.35;2.97;;;;;;;;;;6290731;28;20036;-81
2022/09/02 03:26:42;;;;;;;3.42;3.00;;;;;;;;;;6284947;28;20056;-82
2022/09/02 03:29:45;;;;;;;4.68;3.40;;;;;;;;;;6297076;28;20105;-81
2022/09/02 03:32:49;;;;;;;4.32;3.63;;;;;;;;;;6288835;28;20049;-81
2022/09/02 03:35:51;;;;;;;3.40;3.08;;;;;;;;;;6289788;28;20041;-81
2022/09/02 03:38:54;;;;;;;3.35;2.85;;;;;;;;;;6289160;28;20052;-81
2022/09/02 03:41:56;;;;;;;3.55;3.25;;;;;;;;;;6307499;28;20037;-80
2022/09/02 03:44:58;;;;;;;4.57;3.30;;;;;;;;;;6265000;28;20047;-82
2022/09/02 03:48:00;;;;;;;4.47;3.30;;;;;;;;;;6284307;28;20406;-80
2022/09/02 03:51:06;;;;;;;4.07;3.28;;;;;;;;;;6291362;28;20059;-84
2022/09/02 03:54:09;;;;;;;5.00;3.20;;;;;;;;;;6291045;28;20044;-84
2022/09/02 03:57:11;;;;;;;3.47;3.17;;;;;;;;;;6291435;28;20117;-82
2022/09/02 04:00:15;;;;;;;4.93;3.38;;;;;;;;;;6290605;28;20068;-81
2022/09/02 04:03:19;;;;;;;4.82;3.33;;;;;;;;;;6286591;28;20041;-82
2022/09/02 04:06:24;;;;;;;4.13;3.72;;;;;;;;;;6297054;28;20041;-79
2022/09/02 04:09:34;;;;;;;6.18;3.70;;;;;;;;;;6272558;28;20047;-79
2022/09/02 04:12:36;;;;;;;3.85;3.30;;;;;;;;;;6282792;28;20056;-80
2022/09/02 04:15:43;;;;;;;3.75;3.38;;;;;;;;;;6267671;28;20044;-80
2022/09/02 04:18:45;;;;;;;6.88;3.42;;;;;;;;;;6287007;28;20090;-80
2022/09/02 04:21:47;;;;;;;4.13;3.67;;;;;;;;;;6287083;28;20045;-80
2022/09/02 04:24:50;;;;;;;5.95;3.85;;;;;;;;;;6288073;28;20058;-79
2022/09/02 04:27:53;;;;;;;5.57;3.50;;;;;;;;;;6284780;28;20113;-79
2022/09/02 04:30:56;;;;;;;5.30;3.90;;;;;;;;;;6284627;28;20048;-79
2022/09/02 04:33:59;;;;;;;3.83;3.40;;;;;;;;;;6277797;28;20037;-80
2022/09/02 04:37:02;;;;;;;4.82;3.60;;;;;;;;;;6285890;28;20052;-79
2022/09/02 04:40:04;;;;;;;4.65;3.67;;;;;;;;;;6271345;28;20087;-80
2022/09/02 04:43:06;;;;;;;3.33;3.03;;;;;;;;;;6276763;28;20128;-82
2022/09/02 04:46:12;;;;;;;4.13;3.47;;;;;;;;;;6275045;28;20150;-79
2022/09/02 04:49:16;;;;;;;3.88;3.40;;;;;;;;;;6283582;28;20411;-79
2022/09/02 04:52:20;;;;;;;6.53;3.33;;;;;;;;;;6287677;27;20068;-79
2022/09/02 04:55:22;;;;;;;6.13;3.65;;;;;;;;;;6286747;27;20033;-80
2022/09/02 04:58:27;;;;;;;3.45;3.15;;;;;;;;;;6309217;27;20047;-80
2022/09/02 05:01:33;;;;;;;4.20;3.70;;;;;;;;;;6287970;28;20518;-80
2022/09/02 05:04:40;;;;;;;4.28;3.75;;;;;;;;;;6306500;27;20048;-81
2022/09/02 05:07:55;;;;;;;5.63;4.13;;;;;;;;;;6307651;28;20056;-79
2022/09/02 05:10:57;;;;;;;5.50;3.88;;;;;;;;;;6294475;28;20058;-81
2022/09/02 05:14:03;;;;;;;4.82;3.63;;;;;;;;;;6287217;27;20111;-80
2022/09/02 05:17:06;;;;;;;5.30;4.15;;;;;;;;;;6291155;28;20044;-80
2022/09/02 05:20:12;;;;;;;5.60;4.45;;;;;;;;;;6302258;27;20442;-81
2022/09/02 05:23:15;;;;;;;5.40;4.18;;;;;;;;;;6293201;27;20048;-80
2022/09/02 05:26:18;;;;;;;5.18;3.97;;;;;;;;;;6276043;28;20044;-80
2022/09/02 05:29:22;;;;;;;6.80;4.40;;;;;;;;;;6298870;27;20036;-80
2022/09/02 05:32:26;;;;;;;7.25;4.43;;;;;;;;;;6287844;28;20048;-80
2022/09/02 05:35:29;;;;;;;5.10;4.20;;;;;;;;;;6290105;28;20686;-81
2022/09/02 05:38:33;;;;;;;7.93;4.45;;;;;;;;;;6274547;27;20542;-80
2022/09/02 05:41:36;;;;;;;4.28;3.88;;;;;;;;;;6282896;27;20056;-80
2022/09/02 05:44:43;;;;;;;6.82;3.92;;;;;;;;;;6290857;28;20048;-77
2022/09/02 05:47:49;;;;;;;6.75;4.00;;;;;;;;;;6280358;27;20503;-80
2022/09/02 05:50:51;;;;;;;4.32;3.70;;;;;;;;;;6280887;28;20045;-79
2022/09/02 05:54:00;;;;;;;6.25;3.70;;;;;;;;;;6281551;27;20047;-79
2022/09/02 05:57:08;;;;;;;5.82;3.72;;;;;;;;;;6272475;27;20063;-81
2022/09/02 06:00:12;;;;;;;6.88;4.03;;;;;;;;;;6274057;28;20032;-79
2022/09/02 06:03:26;;;;;;;5.00;4.00;;;;;;;;;;6270630;28;20059;-78
2022/09/02 06:06:31;;;;;;;11.32;4.20;;;;;;;;;;6270870;28;20036;-79
2022/09/02 06:09:36;;;;;;;9.00;4.00;;;;;;;;;;6275069;28;20044;-76
2022/09/02 06:12:41;;;;;;;11.50;3.85;;;;;;;;;;6247506;27;20145;-79
2022/09/02 06:15:52;;;;;;;19.55;4.47;;;;;;;;;;6275344;28;20071;-77
2022/09/02 06:18:58;;;;;;;14.38;4.55;;;;;;;;;;6286404;28;20098;-76
2022/09/02 06:22:03;;;;;;;23.80;5.53;;;;;;;;;;6284944;28;20043;-81
2022/09/02 06:25:09;;;;;;;24.67;6.07;;;;;;;;;;6272196;28;20483;-78
2022/09/02 06:28:12;;;;;;;19.33;4.82;;;;;;;;;;6270625;27;20380;-79
2022/09/02 06:31:20;;;;;;;17.48;4.95;;;;;;;;;;6256970;28;20675;-79
2022/09/02 06:34:26;;;;;;;14.43;4.80;;;;;;;;;;6281390;28;20041;-79
2022/09/02 06:37:30;;;;;;;14.13;4.20;;;;;;;;;;6274828;28;20047;-78
2022/09/02 06:40:33;;;;;;;17.65;4.30;;;;;;;;;;6280251;28;20044;-76
2022/09/02 06:43:35;;;;;;;12.27;4.43;;;;;;;;;;6287598;28;20881;-82
2022/09/02 06:47:01;;;;;;;19.67;4.75;;;;;;;;;;6275184;28;20040;-78
2022/09/02 06:50:05;;;;;;;15.15;4.72;;;;;;;;;;6284867;28;20052;-79
2022/09/02 06:53:10;;;;;;;20.75;4.68;;;;;;;;;;6275199;28;20131;-81
2022/09/02 06:56:13;;;;;;;13.68;4.10;;;;;;;;;;6280861;28;20047;-80
2022/09/02 06:59:19;;;;;;;13.70;3.90;;;;;;;;;;6295857;28;20051;-80
2022/09/02 07:02:25;;;;;;;16.05;4.40;;;;;;;;;;6279177;28;20044;-77
2022/09/02 07:05:27;;;;;;;13.75;4.15;;;;;;;;;;6279430;28;20037;-77
2022/09/02 07:08:29;;;;;;;8.80;3.55;;;;;;;;;;6284584;28;20047;-80
2022/09/02 07:11:32;;;;;;;16.95;3.70;;;;;;;;;;6279675;28;20098;-78
2022/09/02 07:14:37;;;;;;;10.30;4.45;;;;;;;;;;6269696;28;20412;-78
2022/09/02 07:17:39;;;;;;;13.25;3.85;;;;;;;;;;6283068;28;20554;-77
2022/09/02 07:20:46;;;;;;;13.30;3.67;;;;;;;;;;6283672;28;20048;-79
2022/09/02 07:23:49;;;;;;;12.02;3.95;;;;;;;;;;6281570;28;20167;-78
2022/09/02 07:26:55;;;;;;;9.07;3.42;;;;;;;;;;6279564;28;20048;-78
2022/09/02 07:29:59;;;;;;;16.23;3.83;;;;;;;;;;6280798;28;20043;-76
2022/09/02 07:33:03;;;;;;;13.20;3.77;;;;;;;;;;6280586;28;20060;-76
2022/09/02 07:36:09;;;;;;;18.08;3.72;;;;;;;;;;6255461;28;20553;-78
2022/09/02 07:39:16;;;;;;;32.00;4.97;;;;;;;;;;6279979;28;20041;-78
2022/09/02 07:42:19;;;;;;;22.58;4.13;;;;;;;;;;6279188;28;20044;-78
2022/09/02 07:45:22;;;;;;;36.58;4.97;;;;;;;;;;6278900;28;20040;-76
2022/09/02 07:48:25;;;;;;;15.73;4.30;;;;;;;;;;6270768;28;20047;-77
2022/09/02 07:51:27;;;;;;;24.35;4.60;;;;;;;;;;6266547;28;20166;-78
2022/09/02 07:54:33;;;;;;;26.85;4.43;;;;;;;;;;6269145;28;20148;-78
2022/09/02 07:57:38;;;;;;;21.92;4.70;;;;;;;;;;6274417;28;20068;-79
2022/09/02 08:00:41;;;;;;;22.58;5.03;;;;;;;;;;6274160;28;20047;-77
2022/09/02 08:03:44;;;;;;;20.52;3.65;;;;;;;;;;6284504;28;20411;-78
2022/09/02 08:06:47;;;;;;;9.98;2.30;;;;;;;;;;6273065;28;20045;-78
2022/09/02 08:09:50;;;;;;;7.68;2.28;;;;;;;;;;6272593;28;20064;-79
2022/09/02 08:12:52;;;;;;;5.40;1.90;;;;;;;;;;6276114;28;20049;-81
2022/09/02 08:15:54;;;;;;;7.15;1.42;;;;;;;;;;6291057;28;20074;-79
2022/09/02 08:18:56;;;;;;;3.53;1.40;;;;;;;;;;6273533;28;20179;-78
2022/09/02 08:22:03;;;;;;;;;;;;;;;;;;6275941;28;20051;-81
2022/09/02 08:25:06;;;;;;;2.97;1.60;;;;;;;;;;6279521;28;19920;-79
2022/09/02 08:28:08;;;;;;;2.25;1.30;;;;;;;;;;6286428;28;20044;-78
2022/09/02 08:31:10;;;;;;;1.77;1.35;;;;;;;;;;6266262;28;20049;-78
2022/09/02 08:34:13;;;;;;;1.35;1.10;;;;;;;;;;6276939;28;20495;-80
2022/09/02 08:37:17;;;;;;;3.10;1.33;;;;;;;;;;6286001;28;20040;-78
2022/09/02 08:40:22;;;;;;;5.38;1.40;;;;;;;;;;6277619;28;20044;-81
2022/09/02 08:43:41;;;;;;;118.18;72.15;;;;;;;;;;6284046;28;20098;-79
2022/09/02 08:46:43;;;;;;;3.90;1.60;;;;;;;;;;6277404;28;20059;-80
2022/09/02 08:49:51;;;;;;;3.97;1.52;;;;;;;;;;6292302;28;20055;-79
2022/09/02 08:53:22;;;;;;;11.82;1.92;;;;;;;;;;6295405;28;20054;-78
2022/09/02 08:56:28;;;;;;;3.53;1.80;;;;;;;;;;6281752;28;20048;-80
2022/09/02 08:59:30;;;;;;;1.83;1.20;;;;;;;;;;6292881;28;20396;-84
2022/09/02 09:02:52;;;;;;;2.20;1.38;;;;;;;;;;6283077;28;20049;-83
2022/09/02 09:06:08;;;;;;;2.00;1.30;;;;;;;;;;6279717;28;20052;-78
2022/09/02 09:09:44;;;;;;;3.63;1.90;;;;;;;;;;6262182;28;20044;-78
2022/09/02 09:13:07;;;;;;;2.25;1.30;;;;;;;;;;6271688;28;20053;-81
2022/09/02 09:16:25;;;;;;;;;;;;;;;;;;6290727;28;20048;-79
2022/09/02 09:19:38;;;;;;;1.33;1.20;;;;;;;;;;6282418;28;19921;-80
2022/09/02 09:22:40;;;;;;;;;;;;;;;;;;6279962;28;20040;-78
2022/09/02 09:25:44;;;;;;;2.25;1.30;;;;;;;;;;6276634;28;20405;-78
2022/09/02 09:28:48;;;;;;;3.55;1.30;;;;;;;;;;6267249;28;20056;-78
2022/09/02 09:31:57;;;;;;;2.80;1.30;;;;;;;;;;6284709;28;20048;-77
2022/09/02 09:35:01;;;;;;;2.58;1.20;;;;;;;;;;6275953;28;20496;-78
2022/09/02 09:38:11;;;;;;;2.45;1.52;;;;;;;;;;6293008;28;20041;-78
2022/09/02 09:41:20;;;;;;;3.78;1.35;;;;;;;;;;6269809;28;20072;-79
2022/09/02 09:44:39;;;;;;;1.80;1.10;;;;;;;;;;6271553;28;20513;-79
2022/09/02 09:47:41;;;;;;;1.30;1.20;;;;;;;;;;6276697;28;20051;-79
2022/09/02 09:50:55;;;;;;;2.38;1.35;;;;;;;;;;6269131;28;20502;-78
2022/09/02 09:54:14;;;;;;;3.88;1.65;;;;;;;;;;6282500;28;20040;-78
2022/09/02 09:57:20;;;;;;;2.20;1.40;;;;;;;;;;6272918;28;20040;-78
2022/09/02 10:00:32;;;;;;;3.40;1.27;;;;;;;;;;6281431;28;20043;-78
2022/09/02 10:03:33;;;;;;;2.78;1.20;;;;;;;;;;6267659;28;20136;-78
2022/09/02 10:06:37;;;;;;;2.97;1.30;;;;;;;;;;6272837;28;20047;-77
2022/09/02 10:09:39;;;;;;;2.65;1.20;;;;;;;;;;6248489;28;20045;-77
2022/09/02 10:12:41;;;;;;;2.58;1.70;;;;;;;;;;6276421;28;20563;-78
2022/09/02 10:16:07;;;;;;;4.00;2.47;;;;;;;;;;6275023;28;20421;-79
2022/09/02 10:19:31;;;;;;;2.25;1.40;;;;;;;;;;6269504;28;20135;-76
2022/09/02 10:22:51;;;;;;;1.80;1.40;;;;;;;;;;6252934;28;20123;-78
2022/09/02 10:26:13;;;;;;;4.15;1.48;;;;;;;;;;6271058;28;20037;-77
2022/09/02 10:29:23;;;;;;;4.65;1.65;;;;;;;;;;6276610;28;20122;-77
2022/09/02 10:32:32;;;;;;;4.57;1.98;;;;;;;;;;6270593;28;20047;-76
2022/09/02 10:35:46;;;;;;;1.92;1.40;;;;;;;;;;6286453;28;20047;-77
2022/09/02 10:38:49;;;;;;;2.70;1.40;;;;;;;;;;6272726;28;20507;-77
2022/09/02 10:41:52;;;;;;;;;;;;;;;;;;6272811;28;20514;-76
2022/09/02 10:45:02;;;;;;;;;;;;;;;;;;6270382;28;19932;-78
2022/09/02 10:48:31;;;;;;;3.30;1.50;;;;;;;;;;6289646;28;19935;-77
2022/09/02 10:52:02;;;;;;;2.72;1.60;;;;;;;;;;6263099;28;20520;-76
2022/09/02 10:55:30;;;;;;;3.47;1.50;;;;;;;;;;6274301;28;20045;-78
2022/09/02 10:58:54;;;;;;;3.38;1.42;;;;;;;;;;6271230;28;20055;-78
2022/09/02 11:02:04;;;;;;;2.65;1.23;;;;;;;;;;6261859;28;20581;-77
2022/09/02 11:05:14;;;;;;;2.17;1.40;;;;;;;;;;6212622;28;20519;-75
2022/09/02 11:08:39;;;;;;;1.67;1.50;;;;;;;;;;6254299;28;20048;-77
2022/09/02 11:11:54;;;;;;;4.30;1.50;;;;;;;;;;6261656;28;20122;-76
2022/09/02 11:15:20;;;;;;;3.08;1.45;;;;;;;;;;6259985;28;20080;-77
2022/09/02 11:19:04;;;;;;;1.80;1.45;;;;;;;;;;6258114;28;20044;-77
2022/09/02 11:23:01;;;;;;;2.00;1.30;;;;;;;;;;6183287;28;20045;-77
2022/09/02 11:26:11;;;;;;;2.45;1.50;;;;;;;;;;6174426;28;20928;-78
2022/09/02 11:29:19;;;;;;;2.50;1.98;;;;;;;;;;6264965;28;20056;-78
2022/09/02 11:32:39;;;;;;;2.28;1.50;;;;;;;;;;6279625;28;20044;-77
2022/09/02 11:35:43;;;;;;;1.70;1.42;;;;;;;;;;6280622;28;20072;-78
2022/09/02 11:38:53;;;;;;;2.80;1.35;;;;;;;;;;6277121;28;20139;-77
2022/09/02 11:42:21;;;;;;;2.92;1.40;;;;;;;;;;6241038;28;20076;-77
2022/09/02 11:45:36;;;;;;;3.85;1.33;;;;;;;;;;6263801;28;20051;-76
2022/09/02 11:48:49;;;;;;;2.15;1.40;;;;;;;;;;6272517;28;20060;-76
2022/09/02 11:52:05;;;;;;;2.72;1.35;;;;;;;;;;6276807;28;20067;-76
2022/09/02 11:55:15;;;;;;;2.33;1.35;;;;;;;;;;6278124;28;20121;-77
2022/09/02 11:58:36;;;;;;;4.93;1.60;;;;;;;;;;6266517;28;20036;-77
2022/09/02 12:01:46;;;;;;;2.13;1.70;;;;;;;;;;6278502;28;20151;-77
2022/09/02 12:04:47;;;;;;;2.47;1.60;;;;;;;;;;6273175;28;20048;-77
2022/09/02 12:08:10;;;;;;;1.75;1.30;;;;;;;;;;6255895;28;20045;-78
2022/09/02 12:11:31;;;;;;;2.90;1.25;;;;;;;;;;6275262;28;20045;-77
2022/09/02 12:14:33;;;;;;;2.83;1.40;;;;;;;;;;6265368;28;20219;-77
2022/09/02 12:17:44;;;;;;;2.08;1.10;;;;;;;;;;6264715;28;20052;-76
2022/09/02 12:20:57;;;;;;;2.67;1.25;;;;;;;;;;6278297;28;20059;-77
2022/09/02 12:23:59;;;;;;;2.17;1.50;;;;;;;;;;6265852;28;20060;-77
2022/09/02 12:27:08;;;;;;;1.90;1.33;;;;;;;;;;6274134;28;20488;-77
2022/09/02 12:30:11;;;;;;;2.30;1.20;;;;;;;;;;6271148;28;20438;-77
2022/09/02 12:33:32;;;;;;;3.20;1.30;;;;;;;;;;6278561;28;20092;-76
2022/09/02 12:36:40;;;;;;;4.18;1.20;;;;;;;;;;6256194;28;20048;-76
2022/09/02 12:39:44;;;;;;;1.77;1.23;;;;;;;;;;6271523;28;20048;-76
2022/09/02 12:42:46;;;;;;;2.63;1.30;;;;;;;;;;6272971;28;20076;-77
2022/09/02 12:45:52;;;;;;;4.07;1.27;;;;;;;;;;6262941;28;20059;-77
2022/09/02 12:49:16;;;;;;;2.72;1.48;;;;;;;;;;6269052;28;20646;-77
2022/09/02 12:52:37;;;;;;;3.25;1.13;;;;;;;;;;6248345;28;20528;-76
2022/09/02 12:55:40;;;;;;;1.08;1.00;;;;;;;;;;6258015;28;20041;-75
2022/09/02 12:58:49;;;;;;;2.40;1.30;;;;;;;;;;6237446;28;20149;-77
2022/09/02 13:02:15;;;;;;;3.22;1.30;;;;;;;;;;6271208;28;20048;-78
2022/09/02 13:05:46;;;;;;;4.05;1.25;;;;;;;;;;6274477;28;20075;-77
2022/09/02 13:09:14;;;;;;;1.85;1.55;;;;;;;;;;6281814;28;20060;-77
2022/09/02 13:12:38;;;;;;;1.58;1.10;;;;;;;;;;6275702;28;20041;-76
2022/09/02 13:16:07;;;;;;;1.95;1.48;;;;;;;;;;6282634;28;20120;-77
2022/09/02 13:19:25;;;;;;;2.30;1.48;;;;;;;;;;6286114;28;20087;-76
2022/09/02 13:22:48;;;;;;;2.65;1.20;;;;;;;;;;6283507;28;20048;-76
2022/09/02 13:26:06;;;;;;;1.52;1.20;;;;;;;;;;6268840;28;20045;-84
2022/09/02 13:29:35;;;;;;;1.75;1.27;;;;;;;;;;6263456;28;20490;-82
2022/09/02 13:32:38;;;;;;;1.17;0.90;;;;;;;;;;6284017;28;20049;-78
2022/09/02 13:35:40;;;;;;;1.55;1.20;;;;;;;;;;6283069;28;20049;-79
2022/09/02 13:38:42;;;;;;;1.40;1.30;;;;;;;;;;6273984;28;20045;-80
2022/09/02 13:41:45;;;;;;;3.33;1.20;;;;;;;;;;6279628;28;20056;-79
2022/09/02 13:44:47;;;;;;;1.77;1.08;;;;;;;;;;6271582;28;20045;-78
2022/09/02 13:47:55;;;;;;;0.90;0.90;;;;;;;;;;6269986;28;20053;-78
2022/09/02 13:51:12;;;;;;;2.22;1.20;;;;;;;;;;6261788;28;20191;-78
2022/09/02 13:54:14;;;;;;;3.08;1.25;;;;;;;;;;6276507;28;20119;-78
2022/09/02 13:57:28;;;;;;;1.10;1.00;;;;;;;;;;6283187;28;20048;-78
2022/09/02 14:00:40;;;;;;;2.55;1.17;;;;;;;;;;6267832;28;20048;-76
2022/09/02 14:03:50;;;;;;;3.30;1.10;;;;;;;;;;6279651;28;20545;-77
2022/09/02 14:06:55;;;;;;;1.20;0.90;;;;;;;;;;6290095;28;20044;-77
2022/09/02 14:10:00;;;;;;;1.63;1.10;;;;;;;;;;6278257;28;20231;-78
2022/09/02 14:13:03;;;;;;;1.80;1.10;;;;;;;;;;6278776;28;20036;-77
2022/09/02 14:16:25;;;;;;;1.65;1.20;;;;;;;;;;6276941;28;20044;-78
2022/09/02 14:19:27;;;;;;;1.58;1.10;;;;;;;;;;6267896;28;20049;-78
2022/09/02 14:22:29;;;;;;;1.27;0.80;;;;;;;;;;6271703;28;20591;-77
2022/09/02 14:25:37;;;;;;;1.90;0.90;;;;;;;;;;6231614;28;20036;-77
2022/09/02 14:28:50;;;;;;;1.10;0.82;;;;;;;;;;6246394;28;20534;-77
2022/09/02 14:32:19;;;;;;;1.20;1.05;;;;;;;;;;6287212;28;20048;-77
2022/09/02 14:35:22;;;;;;;1.27;1.05;;;;;;;;;;6284606;28;20494;-77
2022/09/02 14:38:25;;;;;;;3.08;1.17;;;;;;;;;;6280574;28;20044;-77
2022/09/02 14:41:34;;;;;;;2.35;1.00;;;;;;;;;;6287477;28;20045;-77
2022/09/02 14:44:39;;;;;;;1.77;1.13;;;;;;;;;;6279434;28;20052;-78
2022/09/02 14:47:41;;;;;;;1.65;0.90;;;;;;;;;;6278755;28;20119;-79
2022/09/02 14:50:43;;;;;;;1.95;0.93;;;;;;;;;;6278749;28;20658;-80
2022/09/02 14:53:45;;;;;;;0.90;0.85;;;;;;;;;;6277413;28;20056;-81
2022/09/02 14:56:47;;;;;;;1.10;1.00;;;;;;;;;;6275090;28;20469;-81
2022/09/02 14:59:49;;;;;;;1.77;0.90;;;;;;;;;;6283450;28;20765;-79
2022/09/02 15:02:55;;;;;;;1.33;0.90;;;;;;;;;;6279330;28;20114;-78
2022/09/02 15:05:57;;;;;;;2.42;1.05;;;;;;;;;;6283330;28;20206;-79
2022/09/02 15:08:59;;;;;;;2.00;1.25;;;;;;;;;;6279791;28;20045;-79
2022/09/02 15:12:01;;;;;;;3.22;1.00;;;;;;;;;;6280930;28;20048;-79
2022/09/02 15:15:04;;;;;;;1.85;1.00;;;;;;;;;;6284850;28;20487;-79
2022/09/02 15:18:06;;;;;;;1.52;0.98;;;;;;;;;;6274136;28;20037;-80
2022/09/02 15:21:10;;;;;;;2.70;1.05;;;;;;;;;;6275633;28;20709;-80
2022/09/02 15:24:12;;;;;;;1.80;1.00;;;;;;;;;;6269794;28;20110;-80
2022/09/02 15:27:14;;;;;;;1.40;1.10;;;;;;;;;;6274817;28;20060;-80
2022/09/02 15:30:19;;;;;;;1.40;0.90;;;;;;;;;;6271481;28;20373;-80
2022/09/02 15:33:21;;;;;;;1.90;1.30;;;;;;;;;;6272998;28;20041;-79
2022/09/02 15:36:24;;;;;;;3.63;1.42;;;;;;;;;;6270883;28;20142;-80
2022/09/02 15:39:27;;;;;;;2.85;1.30;;;;;;;;;;6275247;28;20049;-79
2022/09/02 15:42:28;;;;;;;0.95;0.85;;;;;;;;;;6271948;28;20040;-79
2022/09/02 15:45:30;;;;;;;1.47;1.13;;;;;;;;;;6271251;28;20041;-80
2022/09/02 15:48:32;;;;;;;1.08;0.95;;;;;;;;;;6274002;28;20040;-79
2022/09/02 15:51:34;;;;;;;1.80;1.10;;;;;;;;;;6273062;28;20053;-78
2022/09/02 15:54:36;;;;;;;2.35;0.98;;;;;;;;;;6278289;28;20443;-79
2022/09/02 15:57:38;;;;;;;2.43;1.10;;;;;;;;;;6285496;28;20051;-80
2022/09/02 16:00:40;;;;;;;1.23;1.13;;;;;;;;;;6284128;28;20051;-79
2022/09/02 16:03:44;;;;;;;3.10;0.90;;;;;;;;;;6281240;28;20449;-80
2022/09/02 16:06:47;;;;;;;2.90;1.10;;;;;;;;;;6277868;28;20130;-79
2022/09/02 16:09:49;;;;;;;4.10;1.02;;;;;;;;;;6280098;28;20063;-80
2022/09/02 16:12:51;;;;;;;1.35;1.00;;;;;;;;;;6273517;28;20068;-81
2022/09/02 16:15:59;;;;;;;1.80;1.10;;;;;;;;;;6277171;28;20052;-80
2022/09/02 16:19:02;;;;;;;2.97;1.48;;;;;;;;;;6284055;28;20052;-81
2022/09/02 16:22:05;;;;;;;2.78;0.88;;;;;;;;;;6282470;28;20050;-81
2022/09/02 16:25:07;;;;;;;3.40;3.10;;;;;;;;;;6287501;28;20047;-79
2022/09/02 16:28:08;;;;;;;3.05;1.10;;;;;;;;;;6278767;28;20038;-80
2022/09/02 16:31:12;;;;;;;1.10;0.80;;;;;;;;;;6281243;28;20041;-80
2022/09/02 16:34:16;;;;;;;3.13;0.95;;;;;;;;;;6278924;28;20055;-80
2022/09/02 16:37:18;;;;;;;1.30;1.20;;;;;;;;;;6265791;28;20040;-81
2022/09/02 16:40:20;;;;;;;2.60;0.90;;;;;;;;;;6273580;28;20507;-81
2022/09/02 16:43:23;;;;;;;5.20;1.30;;;;;;;;;;6279351;28;20076;-80
2022/09/02 16:46:26;;;;;;;3.40;1.20;;;;;;;;;;6271285;28;20041;-80
2022/09/02 16:49:28;;;;;;;1.88;1.08;;;;;;;;;;6282057;28;20515;-81
2022/09/02 16:52:33;;;;;;;2.60;2.33;;;;;;;;;;6280777;28;20052;-80
2022/09/02 16:55:43;;;;;;;2.40;1.98;;;;;;;;;;6266417;28;20052;-79
2022/09/02 16:58:44;;;;;;;2.40;1.60;;;;;;;;;;6275994;28;20045;-80
2022/09/02 17:01:46;;;;;;;2.83;1.00;;;;;;;;;;6264509;28;20447;-80
2022/09/02 17:04:48;;;;;;;1.30;0.93;;;;;;;;;;6285825;28;20128;-80
2022/09/02 17:07:54;;;;;;;2.78;0.95;;;;;;;;;;6284125;28;20056;-80
2022/09/02 17:11:22;;;;;;;0.98;0.88;;;;;;;;;;6277898;28;20052;-79
2022/09/02 17:14:24;;;;;;;2.58;1.05;;;;;;;;;;6278325;28;20047;-80
2022/09/02 17:17:25;;;;;;;3.22;0.90;;;;;;;;;;6276587;28;20048;-79
2022/09/02 17:20:27;;;;;;;1.70;1.00;;;;;;;;;;6285385;28;20055;-79
2022/09/02 17:23:29;;;;;;;0.90;0.90;;;;;;;;;;6288849;28;20451;-79
2022/09/02 17:26:33;;;;;;;1.30;1.08;;;;;;;;;;6284500;28;20041;-78
2022/09/02 17:29:43;;;;;;;2.97;1.05;;;;;;;;;;6272443;28;20032;-78
2022/09/02 17:33:05;;;;;;;4.72;1.50;;;;;;;;;;6267271;28;21189;-79
2022/09/02 17:36:07;;;;;;;3.65;1.48;;;;;;;;;;6285141;28;20044;-80
2022/09/02 17:39:14;;;;;;;6.65;4.70;;;;;;;;;;6278311;28;20041;-79
2022/09/02 17:42:16;;;;;;;9.85;6.20;;;;;;;;;;6279407;28;20571;-80
2022/09/02 17:45:18;;;;;;;7.10;3.90;;;;;;;;;;6286519;28;20045;-79
2022/09/02 17:48:21;;;;;;;10.27;6.63;;;;;;;;;;6288233;28;20044;-81
2022/09/02 17:51:43;;;;;;;3.67;1.70;;;;;;;;;;6281728;28;20047;-79
2022/09/02 17:54:48;;;;;;;2.08;1.58;;;;;;;;;;6279868;28;20056;-79
2022/09/02 17:58:06;;;;;;;3.83;1.90;;;;;;;;;;6264499;28;20049;-78
2022/09/02 18:01:11;;;;;;;3.13;1.75;;;;;;;;;;6278938;28;20049;-80
2022/09/02 18:04:27;;;;;;;9.50;5.50;;;;;;;;;;6281591;28;20171;-79
2022/09/02 18:08:00;;;;;;;16.73;9.20;;;;;;;;;;6257996;28;20041;-81
2022/09/02 18:11:04;;;;;;;11.73;5.90;;;;;;;;;;6280253;28;20566;-80
2022/09/02 18:14:18;;;;;;;4.45;2.72;;;;;;;;;;6277197;28;20052;-80
2022/09/02 18:17:46;;;;;;;1.75;1.58;;;;;;;;;;6267709;28;20045;-80
2022/09/02 18:20:56;;;;;;;2.67;1.95;;;;;;;;;;6272638;28;20059;-79
2022/09/02 18:24:17;;;;;;;4.03;2.42;;;;;;;;;;6296705;28;20496;-82
2022/09/02 18:27:41;;;;;;;2.70;1.60;;;;;;;;;;6284345;28;20041;-77
2022/09/02 18:30:53;;;;;;;2.55;1.90;;;;;;;;;;6283374;28;20052;-78
2022/09/02 18:34:07;;;;;;;4.20;2.80;;;;;;;;;;6274712;28;20056;-75
2022/09/02 18:37:29;;;;;;;2.92;1.60;;;;;;;;;;6289645;28;20126;-76
2022/09/02 18:40:30;;;;;;;2.25;1.40;;;;;;;;;;6285528;28;20071;-78
2022/09/02 18:44:06;;;;;;;4.15;2.55;;;;;;;;;;6286958;28;20045;-79